| time (UTC) | temp C | wind direction | speed KPH | gust KPH | rain 1hr cm | rain 24hr cm | rain mn cm | humidity % | barometer mb |
| 20260902202328 | 33 | 290 | 0.0 | 0.0 | 0.00 | 0.51 | 0.51 | 62 | 1010.9 |
| 20260902201824 | 33 | 218 | 3.2 | 3.2 | 0.00 | 0.51 | 0.51 | 63 | 1010.8 |
| 20260902201319 | 33 | 349 | 1.6 | 3.2 | 0.00 | 0.51 | 0.51 | 63 | 1010.9 |
| 20260902200814 | 33 | 322 | 1.6 | 3.2 | 0.00 | 0.51 | 0.51 | 63 | 1011.2 |
| 20260902200309 | 33 | 301 | 3.2 | 8.0 | 0.00 | 0.51 | 0.51 | 63 | 1011.4 |
| 20260902195805 | 33 | 225 | 1.6 | 3.2 | 0.00 | 0.51 | 0.51 | 63 | 1011.4 |
| 20260902195306 | 32 | 242 | 0.0 | 1.6 | 0.00 | 0.51 | 0.51 | 65 | 1011.7 |
| 20260902194758 | 32 | 256 | 0.0 | 1.6 | 0.00 | 0.51 | 0.51 | 65 | 1011.5 |
| 20260902194253 | 32 | 318 | 6.4 | 11.3 | 0.00 | 0.51 | 0.51 | 65 | 1011.5 |
| 20260902193748 | 33 | 312 | 6.4 | 8.0 | 0.00 | 0.51 | 0.51 | 64 | 1011.4 |
| 20260902193244 | 33 | 321 | 4.8 | 8.0 | 0.00 | 0.51 | 0.51 | 64 | 1011.8 |
| 20260902192743 | 33 | 279 | 1.6 | 3.2 | 0.00 | 0.51 | 0.51 | 64 | 1011.9 |
| 20260902192242 | 32 | 297 | 3.2 | 4.8 | 0.00 | 0.51 | 0.51 | 65 | 1011.9 |
| 20260902191736 | 33 | 224 | 6.4 | 11.3 | 0.00 | 0.51 | 0.51 | 66 | 1012.0 |
| 20260902191236 | 32 | 249 | 3.2 | 4.8 | 0.00 | 0.51 | 0.51 | 65 | 1012.1 |
| 20260902190732 | 32 | 307 | 4.8 | 8.0 | 0.00 | 0.51 | 0.51 | 66 | 1012.1 |
| 20260902190231 | 33 | 212 | 11.3 | 14.5 | 0.00 | 0.51 | 0.51 | 68 | 1012.2 |
| 20260902185727 | 33 | 284 | 0.0 | 0.0 | 0.00 | 0.51 | 0.51 | 69 | 1012.1 |
| 20260902185223 | 33 | 284 | 1.6 | 3.2 | 0.00 | 0.51 | 0.51 | 68 | 1012.5 |
| 20260902184718 | 33 | 270 | 6.4 | 8.0 | 0.00 | 0.51 | 0.51 | 68 | 1012.4 |
| 20260902184214 | 32 | 256 | 1.6 | 3.2 | 0.00 | 0.51 | 0.51 | 70 | 1012.3 |
| 20260902183710 | 32 | 281 | 6.4 | 8.0 | 0.00 | 0.51 | 0.51 | 70 | 1012.5 |
| 20260902183206 | 32 | 314 | 4.8 | 8.0 | 0.00 | 0.51 | 0.51 | 72 | 1012.4 |
| 20260902182702 | 32 | 277 | 0.0 | 0.0 | 0.00 | 0.51 | 0.51 | 72 | 1012.4 |
| 20260902182158 | 32 | 306 | 0.0 | 1.6 | 0.00 | 0.51 | 0.51 | 73 | 1012.7 |
| 20260902181654 | 31 | 264 | 8.0 | 9.7 | 0.00 | 0.51 | 0.51 | 74 | 1012.2 |
| 20260902181153 | 31 | 290 | 1.6 | 8.0 | 0.00 | 0.51 | 0.51 | 76 | 1012.5 |
| 20260902180648 | 31 | 228 | 0.0 | 0.0 | 0.00 | 0.51 | 0.51 | 74 | 1012.4 |
| 20260902180144 | 31 | 246 | 0.0 | 0.0 | 0.00 | 0.51 | 0.51 | 76 | 1012.5 |
| 20260902175643 | 31 | 297 | 0.0 | 0.0 | 0.00 | 0.51 | 0.51 | 76 | 1012.5 |
| 20260902175139 | 31 | 277 | 0.0 | 0.0 | 0.00 | 0.51 | 0.51 | 77 | 1012.6 |
| 20260902174635 | 31 | 320 | 0.0 | 0.0 | 0.00 | 0.51 | 0.51 | 77 | 1012.5 |
| 20260902174131 | 31 | 303 | 0.0 | 1.6 | 0.00 | 0.51 | 0.51 | 77 | 1012.6 |
| 20260902173626 | 31 | 268 | 0.0 | 0.0 | 0.00 | 0.51 | 0.51 | 77 | 1012.9 |
| 20260902173121 | 31 | 263 | 1.6 | 4.8 | 0.00 | 0.51 | 0.51 | 77 | 1012.6 |
| 20260902172615 | 31 | 250 | 0.0 | 0.0 | 0.00 | 0.51 | 0.51 | 78 | 1013.0 |
| 20260902172109 | 30 | 32 | 0.0 | 0.0 | 0.00 | 0.51 | 0.51 | 80 | 1012.9 |
| 20260902171605 | 30 | 291 | 6.4 | 8.0 | 0.00 | 0.51 | 0.51 | 80 | 1013.0 |
| 20260902171101 | 30 | 202 | 3.2 | 4.8 | 0.00 | 0.51 | 0.51 | 79 | 1013.2 |
| 20260902170556 | 30 | 293 | 3.2 | 4.8 | 0.00 | 0.51 | 0.51 | 81 | 1013.6 |
| 20260902170051 | 30 | 321 | 1.6 | 3.2 | 0.00 | 0.51 | 0.51 | 80 | 1013.6 |
| 20260902165551 | 30 | 275 | 0.0 | 1.6 | 0.00 | 0.51 | 0.51 | 82 | 1013.4 |
| 20260902165046 | 30 | 314 | 4.8 | 8.0 | 0.00 | 0.51 | 0.51 | 81 | 1013.7 |
| 20260902164541 | 30 | 278 | 3.2 | 3.2 | 0.00 | 0.51 | 0.51 | 83 | 1013.9 |
| 20260902164039 | 30 | 269 | 0.0 | 3.2 | 0.00 | 0.51 | 0.51 | 84 | 1013.6 |
| 20260902163536 | 30 | 274 | 0.0 | 0.0 | 0.00 | 0.51 | 0.51 | 84 | 1013.6 |
| 20260902163033 | 29 | 253 | 0.0 | 0.0 | 0.00 | 0.51 | 0.51 | 85 | 1013.8 |
| 20260902162527 | 30 | 303 | 3.2 | 4.8 | 0.00 | 0.51 | 0.51 | 85 | 1013.9 |
| 20260902162023 | 29 | 307 | 3.2 | 4.8 | 0.00 | 0.51 | 0.51 | 85 | 1013.9 |
| 20260902161518 | 29 | 204 | 0.0 | 0.0 | 0.00 | 0.51 | 0.51 | 85 | 1013.8 |
| 20260902161014 | 29 | 248 | 0.0 | 0.0 | 0.00 | 0.51 | 0.51 | 86 | 1013.8 |
| 20260902160509 | 30 | 343 | 0.0 | 0.0 | 0.00 | 0.51 | 0.51 | 86 | 1013.7 |
| 20260902160010 | 30 | 45 | 1.6 | 3.2 | 0.00 | 0.51 | 0.51 | 86 | 1013.8 |
| 20260902155503 | 29 | 64 | 0.0 | 1.6 | 0.00 | 0.51 | 0.51 | 89 | 1013.8 |
| 20260902155001 | 28 | 341 | 0.0 | 0.0 | 0.00 | 0.51 | 0.51 | 88 | 1013.8 |
| 20260902154456 | 28 | 267 | 3.2 | 3.2 | 0.00 | 0.51 | 0.51 | 88 | 1014.0 |
| 20260902153952 | 28 | 259 | 0.0 | 0.0 | 0.00 | 0.51 | 0.51 | 88 | 1013.7 |
| 20260902153450 | 28 | 302 | 4.8 | 8.0 | 0.00 | 0.51 | 0.51 | 88 | 1013.9 |
| 20260902152946 | 28 | 311 | 3.2 | 3.2 | 0.00 | 0.51 | 0.51 | 88 | 1013.8 |
| 20260902152442 | 28 | 298 | 4.8 | 4.8 | 0.00 | 0.51 | 0.51 | 89 | 1014.0 |
| 20260902151937 | 28 | 242 | 6.4 | 8.0 | 0.00 | 0.51 | 0.51 | 89 | 1013.9 |
| 20260902151433 | 28 | 7 | 4.8 | 4.8 | 0.00 | 0.51 | 0.51 | 89 | 1013.9 |
| 20260902150926 | 28 | 305 | 4.8 | 8.0 | 0.00 | 0.51 | 0.51 | 88 | 1014.1 |
| 20260902150423 | 28 | 302 | 0.0 | 0.0 | 0.00 | 0.51 | 0.51 | 87 | 1013.9 |
| 20260902145923 | 29 | 280 | 0.0 | 0.0 | 0.00 | 0.51 | 0.51 | 87 | 1013.8 |
| 20260902145418 | 29 | 277 | 1.6 | 1.6 | 0.00 | 0.51 | 0.51 | 87 | 1013.5 |
| 20260902144913 | 29 | 238 | 1.6 | 1.6 | 0.00 | 0.51 | 0.51 | 87 | 1013.1 |
| 20260902144408 | 29 | 266 | 3.2 | 3.2 | 0.00 | 0.51 | 0.51 | 86 | 1012.9 |
| 20260902143903 | 30 | 270 | 0.0 | 1.6 | 0.00 | 0.51 | 0.51 | 85 | 1013.3 |
| 20260902143358 | 29 | 258 | 0.0 | 0.0 | 0.00 | 0.51 | 0.51 | 87 | 1013.1 |
| 20260902142853 | 28 | 302 | 0.0 | 0.0 | 0.00 | 0.51 | 0.51 | 89 | 1013.2 |
| 20260902142349 | 28 | 321 | 4.8 | 4.8 | 0.00 | 0.51 | 0.51 | 89 | 1013.3 |
| 20260902141844 | 28 | 211 | 0.0 | 0.0 | 0.00 | 0.51 | 0.51 | 89 | 1013.3 |
| 20260902141340 | 28 | 247 | 0.0 | 0.0 | 0.00 | 0.51 | 0.51 | 90 | 1013.1 |
| 20260902140839 | 28 | 280 | 1.6 | 3.2 | 0.00 | 0.51 | 0.51 | 90 | 1013.0 |
| 20260902140335 | 28 | 310 | 0.0 | 0.0 | 0.00 | 0.51 | 0.51 | 92 | 1013.2 |
| 20260902135834 | 27 | 179 | 0.0 | 0.0 | 0.00 | 0.51 | 0.51 | 91 | 1013.1 |
| 20260902135330 | 27 | 333 | 0.0 | 0.0 | 0.00 | 0.51 | 0.51 | 93 | 1013.4 |
| 20260902134829 | 26 | 287 | 0.0 | 1.6 | 0.00 | 0.51 | 0.51 | 95 | 1013.2 |
| 20260902134325 | 25 | 274 | 0.0 | 0.0 | 0.00 | 0.51 | 0.51 | 99 | 1013.5 |
| 20260902133820 | 25 | 219 | 0.0 | 0.0 | 0.00 | 0.51 | 0.51 | 99 | 1013.5 |
| 20260902133319 | 25 | 291 | 0.0 | 0.0 | 0.00 | 0.51 | 0.51 | 99 | 1013.6 |
| 20260902132815 | 25 | 237 | 1.6 | 3.2 | 0.00 | 0.51 | 0.51 | 99 | 1013.5 |
| 20260902132310 | 25 | 303 | 0.0 | 0.0 | 0.00 | 0.51 | 0.51 | 99 | 1013.5 |
| 20260902131806 | 25 | 23 | 0.0 | 0.0 | 0.00 | 0.51 | 0.51 | 99 | 1013.6 |
| 20260902131302 | 25 | 299 | 0.0 | 0.0 | 0.00 | 0.51 | 0.51 | 99 | 1013.8 |
| 20260902130801 | 24 | 245 | 0.0 | 0.0 | 0.00 | 0.51 | 0.51 | 99 | 1013.6 |
| 20260902130257 | 24 | 262 | 0.0 | 0.0 | 0.00 | 0.51 | 0.51 | 99 | 1013.9 |
| 20260902125752 | 24 | 272 | 0.0 | 0.0 | 0.00 | 0.51 | 0.51 | 99 | 1013.8 |
| 20260902125248 | 24 | 294 | 1.6 | 3.2 | 0.00 | 0.51 | 0.51 | 99 | 1014.0 |
| 20260902124744 | 24 | 288 | 0.0 | 0.0 | 0.00 | 0.51 | 0.51 | 99 | 1013.7 |
| 20260902124240 | 24 | 294 | 0.0 | 0.0 | 0.00 | 0.51 | 0.51 | 99 | 1013.8 |
| 20260902123735 | 23 | 292 | 0.0 | 0.0 | 0.00 | 0.51 | 0.51 | 99 | 1013.7 |
| 20260902123231 | 23 | 297 | 0.0 | 0.0 | 0.00 | 0.51 | 0.51 | 99 | 1013.6 |
| 20260902122729 | 23 | 304 | 0.0 | 0.0 | 0.00 | 0.51 | 0.51 | 99 | 1013.6 |
| 20260902122226 | 23 | 290 | 0.0 | 0.0 | 0.00 | 0.51 | 0.51 | 99 | 1013.7 |
| 20260902121725 | 23 | 305 | 0.0 | 0.0 | 0.00 | 0.51 | 0.51 | 99 | 1013.5 |
| 20260902121220 | 23 | 291 | 0.0 | 0.0 | 0.00 | 0.51 | 0.51 | 99 | 1013.6 |
| 20260902120716 | 23 | 312 | 0.0 | 0.0 | 0.00 | 0.51 | 0.51 | 99 | 1013.7 |
| 20260902120213 | 22 | 315 | 0.0 | 0.0 | 0.00 | 0.51 | 0.51 | 99 | 1013.8 |
| 20260902115712 | 22 | 324 | 0.0 | 0.0 | 0.00 | 0.51 | 0.51 | 99 | 1013.6 |
| 20260902115209 | 22 | 300 | 0.0 | 0.0 | 0.00 | 0.51 | 0.51 | 99 | 1013.2 |
| 20260902114704 | 22 | 291 | 0.0 | 0.0 | 0.00 | 0.51 | 0.51 | 99 | 1013.5 |
| 20260902114159 | 22 | 298 | 0.0 | 0.0 | 0.00 | 0.51 | 0.51 | 99 | 1013.6 |
| 20260902113655 | 22 | 268 | 0.0 | 0.0 | 0.00 | 0.51 | 0.51 | 99 | 1013.2 |
| 20260902113149 | 22 | 293 | 0.0 | 0.0 | 0.00 | 0.51 | 0.51 | 99 | 1013.4 |
| 20260902112644 | 22 | 289 | 0.0 | 0.0 | 0.00 | 0.51 | 0.51 | 99 | 1013.4 |
| 20260902112141 | 22 | 312 | 0.0 | 0.0 | 0.00 | 0.51 | 0.51 | 99 | 1013.3 |
| 20260902111636 | 22 | 301 | 0.0 | 0.0 | 0.00 | 0.51 | 0.51 | 99 | 1013.6 |
| 20260902111132 | 22 | 295 | 0.0 | 0.0 | 0.00 | 0.51 | 0.51 | 99 | 1013.6 |
| 20260902110628 | 22 | 295 | 0.0 | 0.0 | 0.00 | 0.51 | 0.51 | 99 | 1013.5 |
| 20260902110124 | 22 | 278 | 0.0 | 0.0 | 0.00 | 0.51 | 0.51 | 99 | 1013.5 |
| 20260902105623 | 22 | 276 | 0.0 | 0.0 | 0.00 | 0.51 | 0.51 | 99 | 1013.6 |
| 20260902105118 | 22 | 295 | 0.0 | 0.0 | 0.00 | 0.51 | 0.51 | 99 | 1013.5 |
| 20260902104614 | 22 | 275 | 0.0 | 0.0 | 0.00 | 0.51 | 0.51 | 99 | 1013.8 |
| 20260902104109 | 22 | 237 | 0.0 | 0.0 | 0.18 | 0.51 | 0.51 | 99 | 1013.8 |
| 20260902103608 | 22 | 236 | 1.6 | 3.2 | 0.18 | 0.51 | 0.51 | 99 | 1013.9 |
| 20260902103104 | 22 | 242 | 3.2 | 3.2 | 0.00 | 0.48 | 0.48 | 99 | 1013.5 |
| 20260902102555 | 22 | 313 | 0.0 | 0.0 | 0.00 | 0.48 | 0.48 | 99 | 1013.4 |
| 20260902102051 | 22 | 341 | 0.0 | 0.0 | 1.02 | 0.48 | 0.48 | 99 | 1013.3 |
| 20260902101547 | 22 | 292 | 0.0 | 0.0 | 2.39 | 0.48 | 0.48 | 99 | 1013.6 |
| 20260902101046 | 23 | 306 | 4.8 | 8.0 | 1.80 | 0.33 | 0.33 | 99 | 1014.5 |
| 20260902100545 | 24 | 276 | 4.8 | 4.8 | 0.48 | 0.08 | 0.08 | 99 | 1014.2 |
| 20260902100040 | 24 | 279 | 4.8 | 8.0 | 0.18 | 0.03 | 0.03 | 99 | 1014.5 |
| 20260902095540 | 24 | 290 | 1.6 | 3.2 | 0.00 | 0.00 | 0.00 | 99 | 1014.0 |
| 20260902095039 | 23 | 280 | 0.0 | 0.0 | 0.00 | 0.00 | 0.00 | 99 | 1013.7 |
| 20260902094535 | 23 | 248 | 0.0 | 0.0 | 0.00 | 0.00 | 0.00 | 99 | 1013.4 |
| 20260902094030 | 23 | 269 | 0.0 | 0.0 | 0.00 | 0.00 | 0.00 | 99 | 1013.7 |
| 20260902093525 | 23 | 270 | 0.0 | 0.0 | 0.00 | 0.00 | 0.00 | 99 | 1013.7 |
| 20260902093025 | 23 | 281 | 0.0 | 0.0 | 0.00 | 0.00 | 0.00 | 99 | 1013.4 |
| 20260902092520 | 23 | 264 | 0.0 | 0.0 | 0.00 | 0.00 | 0.00 | 99 | 1013.6 |
| 20260902092015 | 23 | 347 | 0.0 | 0.0 | 0.00 | 0.00 | 0.00 | 99 | 1013.4 |
| 20260902091510 | 23 | 267 | 0.0 | 0.0 | 0.00 | 0.00 | 0.00 | 99 | 1013.5 |
| 20260902091006 | 23 | 284 | 0.0 | 0.0 | 0.00 | 0.00 | 0.00 | 99 | 1013.7 |
| 20260902090501 | 23 | 288 | 0.0 | 0.0 | 0.00 | 0.00 | 0.00 | 99 | 1013.5 |
| 20260902090000 | 23 | 291 | 0.0 | 0.0 | 0.00 | 0.00 | 0.00 | 99 | 1013.2 |
| 20260902085455 | 23 | 300 | 0.0 | 0.0 | 0.00 | 0.00 | 0.00 | 99 | 1013.2 |
| 20260902084950 | 23 | 300 | 0.0 | 0.0 | 0.00 | 0.00 | 0.00 | 99 | 1012.9 |
| 20260902084447 | 23 | 287 | 0.0 | 0.0 | 0.00 | 0.00 | 0.00 | 99 | 1013.1 |
| 20260902083943 | 23 | 287 | 0.0 | 0.0 | 0.00 | 0.00 | 0.00 | 99 | 1013.1 |
| 20260902083442 | 24 | 281 | 0.0 | 0.0 | 0.00 | 0.00 | 0.00 | 99 | 1013.3 |
| 20260902082937 | 24 | 261 | 0.0 | 0.0 | 0.00 | 0.00 | 0.00 | 99 | 1013.3 |
| 20260902082433 | 24 | 308 | 0.0 | 0.0 | 0.00 | 0.00 | 0.00 | 99 | 1013.2 |
| 20260902081929 | 24 | 280 | 0.0 | 0.0 | 0.00 | 0.00 | 0.00 | 99 | 1013.1 |
| 20260902081425 | 24 | 279 | 0.0 | 0.0 | 0.00 | 0.00 | 0.00 | 99 | 1013.2 |
| 20260902080920 | 24 | 303 | 0.0 | 0.0 | 0.00 | 0.00 | 0.00 | 99 | 1013.3 |
| 20260902080416 | 24 | 287 | 0.0 | 0.0 | 0.00 | 0.00 | 0.00 | 99 | 1013.4 |
| 20260902075915 | 24 | 302 | 0.0 | 0.0 | 0.00 | 0.00 | 0.00 | 99 | 1013.3 |
| 20260902075412 | 24 | 292 | 0.0 | 0.0 | 0.00 | 0.00 | 0.00 | 98 | 1013.1 |
| 20260902074907 | 24 | 287 | 0.0 | 0.0 | 0.00 | 0.00 | 0.00 | 98 | 1013.3 |
| 20260902074403 | 24 | 263 | 0.0 | 0.0 | 0.00 | 0.00 | 0.00 | 98 | 1013.1 |
| 20260902073857 | 23 | 286 | 0.0 | 0.0 | 0.00 | 0.00 | 0.00 | 98 | 1013.0 |
| 20260902073354 | 23 | 289 | 0.0 | 0.0 | 0.00 | 0.00 | 0.00 | 98 | 1013.4 |
| 20260902072849 | 23 | 280 | 0.0 | 0.0 | 0.00 | 0.00 | 0.00 | 98 | 1013.2 |
| 20260902072345 | 23 | 293 | 0.0 | 0.0 | 0.00 | 0.00 | 0.00 | 98 | 1013.0 |
| 20260902071841 | 23 | 290 | 0.0 | 0.0 | 0.00 | 0.00 | 0.00 | 98 | 1013.4 |
| 20260902071341 | 23 | 282 | 0.0 | 0.0 | 0.00 | 0.00 | 0.00 | 98 | 1013.4 |
| 20260902070837 | 23 | 285 | 0.0 | 0.0 | 0.00 | 0.00 | 0.00 | 98 | 1013.2 |
| 20260902070332 | 23 | 288 | 0.0 | 0.0 | 0.00 | 0.00 | 0.00 | 98 | 1013.0 |
| 20260902065830 | 23 | 288 | 0.0 | 0.0 | 0.00 | 0.00 | 0.00 | 98 | 1013.0 |
| 20260902065326 | 23 | 320 | 0.0 | 0.0 | 0.00 | 0.00 | 0.00 | 97 | 1013.0 |
| 20260902064821 | 24 | 278 | 0.0 | 0.0 | 0.00 | 0.00 | 0.00 | 97 | 1012.9 |
| 20260902064317 | 24 | 277 | 0.0 | 0.0 | 0.00 | 0.00 | 0.00 | 97 | 1013.2 |
| 20260902063812 | 24 | 284 | 0.0 | 0.0 | 0.00 | 0.00 | 0.00 | 96 | 1013.0 |
| 20260902063307 | 24 | 293 | 0.0 | 0.0 | 0.00 | 0.00 | 0.00 | 96 | 1013.1 |
| 20260902062801 | 24 | 287 | 0.0 | 0.0 | 0.00 | 0.00 | 0.00 | 95 | 1013.2 |
| 20260902062256 | 24 | 291 | 0.0 | 0.0 | 0.00 | 0.00 | 0.00 | 95 | 1013.2 |
| 20260902061755 | 25 | 297 | 0.0 | 0.0 | 0.00 | 0.00 | 0.00 | 95 | 1013.2 |
| 20260902061250 | 25 | 309 | 0.0 | 0.0 | 0.00 | 0.00 | 0.00 | 95 | 1013.5 |
| 20260902060748 | 25 | 286 | 0.0 | 0.0 | 0.00 | 0.00 | 0.00 | 95 | 1013.5 |
| 20260902060243 | 24 | 294 | 0.0 | 0.0 | 0.00 | 0.00 | 0.00 | 95 | 1013.3 |
| 20260902055738 | 24 | 275 | 0.0 | 0.0 | 0.00 | 0.00 | 0.00 | 95 | 1013.6 |
| 20260902055234 | 24 | 271 | 0.0 | 0.0 | 0.00 | 0.00 | 0.00 | 95 | 1013.5 |
| 20260902054729 | 24 | 314 | 0.0 | 0.0 | 0.00 | 0.00 | 0.00 | 96 | 1013.6 |
| 20260902054225 | 24 | 299 | 0.0 | 0.0 | 0.00 | 0.00 | 0.00 | 96 | 1013.3 |
| 20260902053720 | 24 | 280 | 0.0 | 0.0 | 0.00 | 0.00 | 0.00 | 96 | 1013.5 |
| 20260902053220 | 24 | 291 | 0.0 | 0.0 | 0.00 | 0.00 | 0.00 | 96 | 1013.7 |
| 20260902052719 | 24 | 274 | 0.0 | 0.0 | 0.00 | 0.00 | 0.00 | 96 | 1013.4 |
| 20260902052215 | 24 | 285 | 0.0 | 0.0 | 0.00 | 0.00 | 0.00 | 95 | 1013.5 |
| 20260902051714 | 24 | 295 | 0.0 | 0.0 | 0.00 | 0.00 | 0.00 | 95 | 1013.6 |
| 20260902051209 | 24 | 314 | 0.0 | 0.0 | 0.00 | 0.00 | 0.00 | 95 | 1013.5 |
| 20260902050703 | 24 | 312 | 0.0 | 0.0 | 0.00 | 0.00 | 0.00 | 95 | 1013.8 |
| 20260902050159 | 24 | 314 | 0.0 | 0.0 | 0.00 | 0.00 | 0.00 | 95 | 1013.3 |
| 20260902045653 | 25 | 295 | 0.0 | 0.0 | 0.00 | 0.00 | 0.00 | 95 | 1013.5 |
| 20260902045149 | 25 | 278 | 0.0 | 0.0 | 0.00 | 0.00 | 0.00 | 95 | 1013.5 |
| 20260902044644 | 25 | 277 | 1.6 | 1.6 | 0.00 | 0.00 | 0.00 | 95 | 1013.8 |
| 20260902044140 | 25 | 293 | 1.6 | 1.6 | 0.00 | 0.00 | 0.00 | 96 | 1013.7 |
| 20260902043634 | 24 | 259 | 3.2 | 3.2 | 0.00 | 0.00 | 0.00 | 96 | 1013.7 |
| 20260902043130 | 24 | 297 | 0.0 | 0.0 | 0.00 | 0.00 | 0.00 | 97 | 1013.7 |
| 20260902042624 | 24 | 278 | 0.0 | 0.0 | 0.00 | 0.00 | 0.00 | 97 | 1013.4 |
| 20260902042119 | 24 | 280 | 0.0 | 0.0 | 0.00 | 0.00 | 0.00 | 98 | 1013.5 |
| 20260902041618 | 24 | 34 | 0.0 | 0.0 | 0.00 | 0.00 | 0.00 | 98 | 1013.5 |
| 20260902041114 | 24 | 284 | 0.0 | 0.0 | 0.00 | 0.00 | 0.00 | 98 | 1013.6 |
| 20260902040613 | 24 | 275 | 0.0 | 0.0 | 0.00 | 0.00 | 0.00 | 98 | 1013.7 |
| 20260902040109 | 24 | 274 | 0.0 | 0.0 | 0.00 | 0.00 | 0.00 | 98 | 1013.4 |
| 20260902035607 | 24 | 256 | 0.0 | 0.0 | 0.00 | 0.00 | 0.00 | 98 | 1013.4 |
| 20260902035103 | 24 | 295 | 0.0 | 0.0 | 0.00 | 0.00 | 0.00 | 98 | 1013.5 |
| 20260902034601 | 25 | 290 | 0.0 | 0.0 | 0.00 | 0.00 | 0.00 | 98 | 1013.5 |
| 20260902034101 | 25 | 283 | 0.0 | 0.0 | 0.00 | 0.00 | 0.00 | 97 | 1013.3 |
| 20260902033600 | 25 | 296 | 0.0 | 0.0 | 0.00 | 0.00 | 0.00 | 97 | 1013.4 |
| 20260902033055 | 25 | 287 | 0.0 | 0.0 | 0.00 | 0.00 | 0.00 | 97 | 1013.4 |
| 20260902032554 | 25 | 298 | 0.0 | 0.0 | 0.00 | 0.00 | 0.00 | 97 | 1013.6 |
| 20260902032049 | 25 | 264 | 0.0 | 0.0 | 0.00 | 0.00 | 0.00 | 97 | 1013.5 |
| 20260902031544 | 25 | 286 | 0.0 | 0.0 | 0.00 | 0.00 | 0.00 | 97 | 1013.5 |
| 20260902031040 | 25 | 294 | 1.6 | 1.6 | 0.00 | 0.00 | 0.00 | 97 | 1013.6 |
| 20260902030534 | 25 | 294 | 0.0 | 0.0 | 0.00 | 0.00 | 0.00 | 97 | 1013.4 |
| 20260902030034 | 25 | 278 | 0.0 | 0.0 | 0.00 | 0.00 | 0.00 | 98 | 1013.5 |
| 20260902025529 | 25 | 279 | 0.0 | 0.0 | 0.00 | 0.00 | 0.00 | 98 | 1013.4 |
| 20260902025024 | 25 | 268 | 0.0 | 1.6 | 0.00 | 0.00 | 0.00 | 99 | 1013.6 |
| 20260902024520 | 25 | 279 | 0.0 | 0.0 | 0.00 | 0.00 | 0.00 | 98 | 1013.2 |
| 20260902024019 | 25 | 280 | 0.0 | 0.0 | 0.00 | 0.00 | 0.00 | 98 | 1013.0 |
| 20260902023515 | 25 | 287 | 0.0 | 0.0 | 0.00 | 0.00 | 0.00 | 97 | 1013.1 |
| 20260902023016 | 25 | 291 | 0.0 | 0.0 | 0.00 | 0.00 | 0.00 | 97 | 1013.2 |
| 20260902022510 | 25 | 289 | 0.0 | 0.0 | 0.00 | 0.00 | 0.00 | 96 | 1013.3 |
| 20260902022006 | 25 | 294 | 0.0 | 0.0 | 0.00 | 0.00 | 0.00 | 96 | 1013.2 |
| 20260902021501 | 25 | 276 | 0.0 | 0.0 | 0.00 | 0.00 | 0.00 | 96 | 1013.1 |
| 20260902020956 | 25 | 278 | 0.0 | 0.0 | 0.00 | 0.00 | 0.00 | 96 | 1013.1 |
| 20260902020452 | 25 | 289 | 0.0 | 0.0 | 0.00 | 0.00 | 0.00 | 95 | 1013.2 |
| 20260902015947 | 25 | 294 | 0.0 | 0.0 | 0.00 | 0.00 | 0.00 | 94 | 1013.1 |
| 20260902015443 | 26 | 297 | 0.0 | 0.0 | 0.00 | 0.00 | 0.00 | 94 | 1013.2 |
| 20260902014938 | 26 | 304 | 0.0 | 0.0 | 0.00 | 0.00 | 0.00 | 93 | 1013.1 |
| 20260902014435 | 26 | 292 | 0.0 | 0.0 | 0.00 | 0.00 | 0.00 | 93 | 1013.1 |
| 20260902013934 | 26 | 276 | 0.0 | 0.0 | 0.00 | 0.00 | 0.00 | 92 | 1013.2 |
| 20260902013430 | 26 | 283 | 0.0 | 0.0 | 0.00 | 0.00 | 0.00 | 92 | 1013.2 |
| 20260902012925 | 26 | 286 | 0.0 | 0.0 | 0.00 | 0.00 | 0.00 | 91 | 1013.1 |
| 20260902012420 | 26 | 274 | 0.0 | 0.0 | 0.00 | 0.00 | 0.00 | 91 | 1013.2 |
| 20260902011916 | 27 | 278 | 1.6 | 1.6 | 0.00 | 0.00 | 0.00 | 90 | 1013.3 |
| 20260902011411 | 27 | 258 | 1.6 | 1.6 | 0.00 | 0.00 | 0.00 | 90 | 1013.1 |
| 20260902010910 | 27 | 280 | 1.6 | 3.2 | 0.00 | 0.00 | 0.00 | 90 | 1013.3 |
| 20260902010405 | 27 | 274 | 0.0 | 0.0 | 0.00 | 0.00 | 0.00 | 90 | 1012.7 |
| 20260902005904 | 27 | 269 | 0.0 | 0.0 | 0.00 | 0.00 | 0.00 | 89 | 1013.0 |
| 20260902005359 | 27 | 279 | 0.0 | 0.0 | 0.00 | 0.00 | 0.00 | 88 | 1012.7 |
| 20260902004855 | 27 | 304 | 1.6 | 1.6 | 0.00 | 0.00 | 0.00 | 88 | 1012.9 |
| 20260902004354 | 27 | 267 | 1.6 | 1.6 | 0.00 | 0.00 | 0.00 | 87 | 1013.0 |
| 20260902003849 | 27 | 294 | 0.0 | 0.0 | 0.00 | 0.00 | 0.00 | 87 | 1012.9 |
| 20260902003344 | 27 | 270 | 1.6 | 3.2 | 0.00 | 0.00 | 0.00 | 87 | 1012.4 |
| 20260902002840 | 28 | 275 | 0.0 | 0.0 | 0.00 | 0.00 | 0.00 | 87 | 1012.7 |
| 20260902002339 | 28 | 277 | 0.0 | 0.0 | 0.00 | 0.00 | 0.00 | 86 | 1012.5 |
| 20260902001834 | 28 | 278 | 1.6 | 3.2 | 0.00 | 0.00 | 0.00 | 86 | 1012.6 |
| 20260902001329 | 28 | 296 | 3.2 | 3.2 | 0.00 | 0.00 | 0.00 | 85 | 1012.3 |
| 20260902000824 | 28 | 241 | 3.2 | 4.8 | 0.00 | 0.00 | 0.00 | 85 | 1012.7 |
| 20260902000322 | 28 | 251 | 1.6 | 4.8 | 0.00 | 0.00 | 0.00 | 84 | 1012.7 |
| 20260901235814 | 28 | 270 | 3.2 | 3.2 | 0.00 | 0.00 | 0.00 | 83 | 1012.7 |
| 20260901235308 | 29 | 281 | 0.0 | 1.6 | 0.00 | 0.00 | 0.00 | 83 | 1012.6 |
| 20260901234808 | 29 | 259 | 0.0 | 0.0 | 0.00 | 0.00 | 0.00 | 82 | 1012.7 |
| 20260901234303 | 29 | 272 | 3.2 | 4.8 | 0.00 | 0.00 | 0.00 | 81 | 1012.6 |
| 20260901233758 | 30 | 309 | 0.0 | 1.6 | 0.00 | 0.00 | 0.00 | 81 | 1012.9 |
| 20260901233253 | 30 | 279 | 3.2 | 4.8 | 0.00 | 0.00 | 0.00 | 80 | 1012.6 |
| 20260901232749 | 30 | 241 | 3.2 | 3.2 | 0.00 | 0.00 | 0.00 | 80 | 1012.9 |
| 20260901232244 | 30 | 259 | 1.6 | 3.2 | 0.00 | 0.00 | 0.00 | 79 | 1012.6 |
| 20260901231740 | 30 | 227 | 3.2 | 4.8 | 0.00 | 0.00 | 0.00 | 78 | 1012.6 |
| 20260901231236 | 30 | 269 | 1.6 | 1.6 | 0.00 | 0.00 | 0.00 | 78 | 1012.9 |
| 20260901230731 | 30 | 221 | 4.8 | 4.8 | 0.00 | 0.00 | 0.00 | 76 | 1013.1 |
| 20260901230225 | 30 | 66 | 1.6 | 4.8 | 0.00 | 0.00 | 0.00 | 76 | 1012.9 |
| 20260901225721 | 31 | 297 | 11.3 | 14.5 | 0.00 | 0.00 | 0.00 | 74 | 1012.9 |
| 20260901225215 | 31 | 305 | 3.2 | 3.2 | 0.00 | 0.00 | 0.00 | 74 | 1013.0 |
| 20260901224711 | 31 | 226 | 4.8 | 8.0 | 0.00 | 0.00 | 0.00 | 74 | 1012.9 |
| 20260901224207 | 31 | 230 | 4.8 | 8.0 | 0.00 | 0.00 | 0.00 | 73 | 1012.9 |
| 20260901223703 | 31 | 283 | 1.6 | 3.2 | 0.00 | 0.00 | 0.00 | 74 | 1012.6 |
| 20260901223158 | 31 | 285 | 4.8 | 4.8 | 0.00 | 0.00 | 0.00 | 73 | 1012.5 |
| 20260901222654 | 31 | 245 | 8.0 | 12.9 | 0.00 | 0.00 | 0.00 | 73 | 1012.4 |
| 20260901222150 | 31 | 249 | 6.4 | 9.7 | 0.00 | 0.00 | 0.00 | 73 | 1012.3 |
| 20260901221646 | 32 | 225 | 4.8 | 8.0 | 0.00 | 0.00 | 0.00 | 72 | 1012.3 |
| 20260901221141 | 31 | 261 | 4.8 | 4.8 | 0.00 | 0.00 | 0.00 | 72 | 1012.5 |
| 20260901220640 | 31 | 267 | 3.2 | 4.8 | 0.00 | 0.00 | 0.00 | 73 | 1012.6 |
| 20260901220139 | 32 | 297 | 3.2 | 9.7 | 0.00 | 0.00 | 0.00 | 72 | 1012.5 |
| 20260901215638 | 31 | 290 | 6.4 | 8.0 | 0.00 | 0.00 | 0.00 | 72 | 1012.2 |
| 20260901215133 | 31 | 254 | 1.6 | 3.2 | 0.00 | 0.00 | 0.00 | 73 | 1012.3 |
| 20260901214631 | 32 | 243 | 4.8 | 4.8 | 0.00 | 0.00 | 0.00 | 71 | 1012.3 |
| 20260901214130 | 32 | 272 | 3.2 | 4.8 | 0.00 | 0.00 | 0.00 | 71 | 1012.3 |
| 20260901213625 | 32 | 249 | 8.0 | 11.3 | 0.00 | 0.00 | 0.00 | 72 | 1012.2 |
| 20260901213120 | 32 | 245 | 4.8 | 4.8 | 0.00 | 0.00 | 0.00 | 71 | 1012.3 |
| 20260901212619 | 32 | 278 | 3.2 | 3.2 | 0.00 | 0.00 | 0.00 | 73 | 1012.4 |
| 20260901212116 | 32 | 13 | 1.6 | 1.6 | 0.00 | 0.00 | 0.00 | 72 | 1012.5 |
| 20260901211610 | 32 | 297 | 4.8 | 4.8 | 0.00 | 0.00 | 0.00 | 72 | 1012.5 |
| 20260901211107 | 31 | 306 | 1.6 | 1.6 | 0.00 | 0.00 | 0.00 | 74 | 1012.5 |
| 20260901210602 | 31 | 287 | 4.8 | 4.8 | 0.00 | 0.00 | 0.00 | 74 | 1012.7 |
| 20260901210058 | 31 | 275 | 3.2 | 3.2 | 0.00 | 0.00 | 0.00 | 73 | 1012.5 |
| 20260901205553 | 31 | 218 | 9.7 | 11.3 | 0.00 | 0.00 | 0.00 | 73 | 1012.6 |
| 20260901205047 | 32 | 253 | 1.6 | 4.8 | 0.00 | 0.00 | 0.00 | 71 | 1012.4 |
| 20260901204544 | 32 | 260 | 3.2 | 3.2 | 0.00 | 0.00 | 0.00 | 71 | 1012.6 |
| 20260901204039 | 32 | 205 | 4.8 | 9.7 | 0.00 | 0.00 | 0.00 | 70 | 1012.7 |
| 20260901203539 | 32 | 258 | 9.7 | 14.5 | 0.00 | 0.00 | 0.00 | 69 | 1012.5 |
| 20260901203034 | 32 | 220 | 6.4 | 8.0 | 0.00 | 0.00 | 0.00 | 71 | 1012.5 |
| 20260901202528 | 32 | 300 | 4.8 | 8.0 | 0.00 | 0.00 | 0.00 | 72 | 1012.5 |